Latest Weather Observations for Roseworthy

IDS60901

Issued at 11:11 am CST Wednesday 1 June 2016 (issued every 10 minutes, with the page automatically refreshed every 10 minutes)

About weather observations | Map of Adelaide area stations | Latest observations for Adelaide area | Other Formats
Station Details ID: 023122 Name: ROSEWORTHY AWS Lat: -34.51 Lon: 138.68 Height: 65.0 m
Data from the previous 72 hours. | See also: Recent months at Roseworthy
Date/Time
CST
Tmp

°C
App
Tmp
°C
Dew
Point
°C
Rel
Hum
%
Delta-T

°C
Wind Press
QNH
hPa
Press
MSL
hPa
Rain
since
9 am
mm
Dir
 
Spd
km/h
Gust
km/h
Spd
kts
Gust
kts
01/11:00am 16.7 13.5 10.1 65 3.5 NNE 17 20 9 11 1024.7 - 0.0
01/10:30am 16.1 12.5 10.0 67 3.2 NNE 19 20 10 11 1025.0 - 0.0
01/10:00am 15.3 12.1 9.9 70 2.8 NNE 17 20 9 11 1025.1 - 0.0
01/09:30am 14.3 11.0 9.7 74 2.4 NE 17 20 9 11 1025.1 - 0.0
01/09:00am 13.6 10.3 9.6 77 2.0 NE 17 20 9 11 1025.1 1025.2 0.0
01/08:30am 12.4 9.8 9.2 81 1.6 NE 13 17 7 9 1025.0 - 0.0
01/08:00am 11.3 8.6 9.0 86 1.1 NE 13 17 7 9 1024.8 - 0.0
01/07:30am 10.7 7.2 8.8 88 0.9 NE 17 20 9 11 1024.6 - 0.0
01/07:00am 10.8 7.7 8.9 88 0.9 ENE 15 17 8 9 1024.3 - 0.0
01/06:30am 11.2 7.8 9.1 87 1.0 ENE 17 20 9 11 1024.0 - 0.0
01/06:00am 11.5 7.5 9.2 86 1.1 ENE 20 26 11 14 1023.6 1023.8 0.0
01/05:30am 11.5 7.7 9.2 86 1.2 NE 19 24 10 13 1023.5 - 0.0
01/05:00am 11.6 7.7 9.3 86 1.2 NE 20 24 11 13 1023.3 - 0.0
01/04:30am 11.7 7.8 9.4 86 1.2 NE 20 24 11 13 1023.1 - 0.0
01/04:00am 11.8 7.9 9.5 86 1.2 NE 20 26 11 14 1023.0 - 0.0
01/03:30am 11.8 7.5 9.4 85 1.2 NE 22 28 12 15 1023.1 - 0.0
01/03:00am 11.4 7.6 9.1 86 1.1 ENE 19 24 10 13 1023.1 1023.3 0.0
01/02:30am 11.5 7.5 9.2 86 1.2 NE 20 24 11 13 1023.1 - 0.0
01/02:00am 11.9 8.0 9.6 86 1.2 ENE 20 24 11 13 1023.0 - 0.0
01/01:30am 12.0 7.8 9.7 86 1.2 ENE 22 26 12 14 1023.0 - 0.0
01/01:00am 12.2 8.4 9.9 86 1.2 NE 20 26 11 14 1023.1 - 0.0
01/12:30am 12.7 8.9 9.9 83 1.4 NE 20 24 11 13 1023.2 - 0.0
01/12:00am 12.9 9.2 10.1 83 1.4 NE 20 26 11 14 1023.3 1023.5 0.0
 
Date/Time
CST
Tmp

°C
App
Tmp
°C
Dew
Point
°C
Rel
Hum
%
Delta-T

°C
Wind Press
QNH
hPa
Press
MSL
hPa
Rain
since
9 am
mm
Dir
 
Spd
km/h
Gust
km/h
Spd
kts
Gust
kts
31/11:30pm 13.0 8.9 10.0 82 1.5 NE 22 26 12 14 1023.4 - 0.0
31/11:00pm 12.9 9.2 10.3 84 1.3 NE 20 24 11 13 1023.5 - 0.0
31/10:30pm 13.2 9.2 10.6 84 1.4 NE 22 28 12 15 1023.4 - 0.0
31/10:00pm 13.2 9.6 10.6 84 1.4 NE 20 24 11 13 1023.7 - 0.0
31/09:30pm 13.1 9.6 10.8 86 1.2 ENE 20 24 11 13 1023.6 - 0.0
31/09:00pm 13.3 10.0 10.8 85 1.3 ENE 19 24 10 13 1023.4 1023.5 0.0
31/08:30pm 13.8 10.5 11.5 86 1.2 NE 20 24 11 13 1023.3 - 0.0
31/08:00pm 13.8 10.4 11.3 85 1.3 NE 20 24 11 13 1023.1 - 0.0
31/07:30pm 14.1 10.7 11.4 84 1.4 ENE 20 24 11 13 1022.9 - 0.0
31/07:00pm 14.2 10.8 11.4 83 1.5 ENE 20 26 11 14 1022.7 - 0.0
31/06:30pm 14.3 11.0 11.5 83 1.5 ENE 20 28 11 15 1022.5 - 0.0
31/06:00pm 14.2 10.8 11.4 83 1.5 ENE 20 26 11 14 1022.5 1022.6 0.0
31/05:30pm 14.4 10.7 11.6 83 1.5 ENE 22 28 12 15 1022.3 - 0.0
31/05:00pm 14.4 10.3 11.6 83 1.5 NE 24 30 13 16 1022.0 - 0.0
31/04:30pm 15.2 11.1 11.4 78 2.0 NE 24 33 13 18 1021.6 - 0.0
31/04:00pm 15.6 12.3 11.6 77 2.2 ENE 20 24 11 13 1021.5 - 0.0
31/03:30pm 15.9 13.1 11.5 75 2.4 NE 17 22 9 12 1021.5 - 0.0
31/03:00pm 16.1 13.4 11.7 75 2.4 ENE 17 20 9 11 1021.4 1021.5 0.0
31/02:30pm 16.4 14.4 11.6 73 2.6 ENE 13 17 7 9 1021.3 - 0.0
31/02:00pm 16.2 14.1 11.2 72 2.7 ENE 13 17 7 9 1021.5 - 0.0
31/01:30pm 15.7 13.3 11.5 76 2.3 ENE 15 19 8 10 1021.7 - 0.0
31/01:00pm 15.0 11.7 10.8 76 2.2 ENE 19 24 10 13 1022.0 - 0.0
31/12:30pm 16.5 13.3 11.2 71 2.9 NNE 19 22 10 12 1022.1 - 0.0
31/12:00pm 15.8 12.3 10.3 70 2.9 NNE 19 26 10 14 1022.5 1022.6 0.0
31/11:30am 15.8 12.5 10.8 72 2.7 NE 19 22 10 12 1023.0 - 0.0
31/11:00am 14.8 11.4 10.4 75 2.3 NE 19 24 10 13 1023.2 - 0.0
31/10:30am 14.4 10.3 10.0 75 2.3 NE 22 28 12 15 1023.4 - 0.0
31/10:00am 14.3 9.4 9.9 75 2.3 NE 26 30 14 16 1023.4 - 0.0
31/09:30am 13.5 8.9 9.6 77 2.0 NE 24 32 13 17 1023.4 - 0.0
31/09:00am 13.0 8.3 9.3 78 1.9 NE 24 32 13 17 1023.2 1023.3 1.0
31/08:30am 12.2 7.4 9.0 81 1.6 NE 24 30 13 16 1023.0 - 1.0
31/08:00am 11.8 6.9 8.6 81 1.6 ENE 24 30 13 16 1022.8 - 1.0
31/07:30am 12.0 6.7 8.5 79 1.7 NE 26 33 14 18 1022.3 - 1.0
31/07:00am 11.8 6.5 8.5 80 1.6 NE 26 32 14 17 1022.0 - 1.0
31/06:30am 11.8 6.9 8.6 81 1.6 ENE 24 30 13 16 1021.7 - 1.0
31/06:00am 12.4 8.3 8.5 77 1.9 NE 20 24 11 13 1021.5 1021.6 1.0
31/05:30am 12.6 8.1 8.5 76 2.0 NE 22 28 12 15 1021.3 - 1.0
31/05:00am 12.3 7.8 8.4 77 1.9 ENE 22 28 12 15 1021.1 - 1.0
31/04:30am 12.0 7.1 8.5 79 1.7 ENE 24 28 13 15 1020.9 - 1.0
31/04:00am 11.8 6.9 8.3 79 1.7 ENE 24 28 13 15 1020.8 - 1.0
31/03:30am 12.4 7.9 8.5 77 1.9 ENE 22 26 12 14 1020.8 - 1.0
31/03:00am 13.1 8.1 8.2 72 2.4 NE 24 30 13 16 1020.8 1020.9 1.0
31/02:30am 12.9 7.5 8.2 73 2.3 NE 26 30 14 16 1020.7 - 1.0
31/02:00am 13.1 7.8 8.4 73 2.3 NE 26 32 14 17 1020.6 - 1.0
31/01:30am 13.1 7.8 8.4 73 2.3 NE 26 32 14 17 1020.6 - 1.0
31/01:00am 13.1 8.2 8.6 74 2.3 NE 24 30 13 16 1020.6 - 1.0
31/12:30am 13.4 8.1 8.5 72 2.5 NE 26 32 14 17 1020.4 - 1.0
31/12:00am 13.1 7.8 8.6 74 2.2 NE 26 35 14 19 1020.5 1020.6 1.0
 
Date/Time
CST
Tmp

°C
App
Tmp
°C
Dew
Point
°C
Rel
Hum
%
Delta-T

°C
Wind Press
QNH
hPa
Press
MSL
hPa
Rain
since
9 am
mm
Dir
 
Spd
km/h
Gust
km/h
Spd
kts
Gust
kts
30/11:30pm 13.2 8.3 8.5 73 2.4 NE 24 32 13 17 1020.6 - 1.0
30/11:00pm 13.0 8.1 8.5 74 2.2 NE 24 30 13 16 1020.7 - 1.0
30/10:30pm 12.8 8.3 8.5 75 2.1 NE 22 28 12 15 1020.7 - 1.0
30/10:00pm 13.3 8.0 8.6 73 2.4 NE 26 32 14 17 1020.8 - 1.0
30/09:30pm 13.1 8.3 8.8 75 2.2 NE 24 30 13 16 1020.8 - 1.0
30/09:00pm 13.3 8.9 9.0 75 2.2 NE 22 32 12 17 1020.9 1021.0 1.0
30/08:30pm 13.4 8.6 8.9 74 2.3 NE 24 32 13 17 1020.7 - 1.0
30/08:00pm 14.1 8.6 9.1 72 2.5 NE 28 33 15 18 1020.6 - 1.0
30/07:30pm 13.9 9.2 9.3 74 2.4 NE 24 30 13 16 1020.4 - 1.0
30/07:00pm 13.8 9.2 9.5 75 2.2 NE 24 30 13 16 1020.1 - 1.0
30/06:30pm 13.7 9.1 9.6 76 2.1 NE 24 28 13 15 1019.8 - 1.0
30/06:00pm 13.5 8.8 9.4 76 2.1 NE 24 30 13 16 1019.6 1019.7 1.0
30/05:30pm 13.6 8.6 9.5 76 2.1 NE 26 33 14 18 1019.1 - 1.0
30/05:00pm 13.8 8.4 9.5 75 2.2 NE 28 33 15 18 1018.8 - 1.0
30/04:30pm 14.7 8.4 9.7 72 2.6 ENE 33 41 18 22 1018.4 - 1.0
30/04:00pm 15.3 10.6 10.5 73 2.5 NE 26 33 14 18 1018.2 - 1.0
30/03:30pm 15.6 10.4 10.4 71 2.7 NE 28 37 15 20 1018.1 - 1.0
30/03:00pm 17.5 12.9 11.1 66 3.5 NNE 26 33 14 18 1017.9 1018.0 1.0
30/02:30pm 16.6 12.7 10.9 69 3.1 NNE 22 28 12 15 1017.9 - 1.0
30/02:00pm 15.8 12.3 10.8 72 2.7 NE 20 26 11 14 1018.0 - 1.0
30/01:30pm 15.9 12.5 10.7 71 2.8 NE 19 24 10 13 1018.2 - 1.0
30/01:00pm 15.8 12.2 11.8 77 2.2 NE 22 28 12 15 1018.3 - 1.0
30/12:30pm 14.4 10.7 10.2 76 2.2 NE 20 26 11 14 1018.7 - 1.0
30/12:00pm 14.1 10.4 10.3 78 2.0 NE 20 26 11 14 1019.0 1019.1 0.8
30/11:30am 13.9 9.3 9.7 76 2.2 NE 24 32 13 17 1019.4 - 0.8
30/11:00am 14.3 9.6 10.5 78 2.0 NE 26 32 14 17 1019.4 - 0.4
30/10:30am 12.7 7.5 9.0 78 1.9 ENE 26 32 14 17 1019.6 - 0.4
30/10:00am 11.7 6.4 8.4 80 1.6 ENE 26 33 14 18 1019.8 - 0.4
30/09:30am 11.5 6.2 8.4 81 1.5 NE 26 32 14 17 1019.6 - 0.2
30/09:00am 11.2 5.8 7.9 80 1.6 NE 26 32 14 17 1019.5 1019.6 0.0
30/08:30am 11.0 5.5 7.7 80 1.6 ENE 26 32 14 17 1019.1 - 0.0
30/08:00am 10.7 5.2 7.4 80 1.6 NE 26 35 14 19 1018.9 - 0.0
30/07:30am 10.4 5.6 7.3 81 1.5 NE 22 30 12 16 1018.6 - 0.0
30/07:00am 10.7 5.4 6.8 77 1.8 NE 24 30 13 16 1018.3 - 0.0
30/06:30am 10.4 5.1 6.7 78 1.7 NE 24 30 13 16 1018.0 - 0.0
30/06:00am 10.4 4.7 6.7 78 1.7 ENE 26 32 14 17 1017.7 1017.8 0.0
30/05:30am 10.1 4.9 5.7 74 2.0 NE 22 28 12 15 1017.6 - 0.0
30/05:00am 10.2 4.3 5.8 74 2.0 NE 26 33 14 18 1017.3 - 0.0
30/04:30am 10.1 4.9 5.5 73 2.1 NE 22 28 12 15 1017.3 - 0.0
30/04:00am 9.7 5.1 6.4 80 1.5 NE 20 26 11 14 1017.2 - 0.0
30/03:30am 9.6 4.8 7.2 85 1.1 NE 22 28 12 15 1017.5 - 0.0
30/03:00am 9.6 4.4 7.2 85 1.1 NE 24 28 13 15 1017.5 1017.6 0.0
30/02:30am 9.4 4.6 7.3 87 1.0 NE 22 28 12 15 1017.5 - 0.0
30/02:00am 9.6 4.4 7.2 85 1.1 NE 24 30 13 16 1017.6 - 0.0
30/01:30am 9.5 3.8 6.8 83 1.3 NE 26 33 14 18 1017.6 - 0.0
30/01:00am 9.6 3.8 6.1 79 1.6 ENE 26 30 14 16 1017.8 - 0.0
30/12:30am 9.8 4.8 6.5 80 1.5 NE 22 28 12 15 1018.1 - 0.0
30/12:00am 10.1 4.8 6.8 80 1.6 ENE 24 28 13 15 1018.1 1018.2 0.0
 
Date/Time
CST
Tmp

°C
App
Tmp
°C
Dew
Point
°C
Rel
Hum
%
Delta-T

°C
Wind Press
QNH
hPa
Press
MSL
hPa
Rain
since
9 am
mm
Dir
 
Spd
km/h
Gust
km/h
Spd
kts
Gust
kts
29/11:30pm 10.3 4.5 6.1 75 2.0 NE 26 32 14 17 1017.9 - 0.0
29/11:00pm 10.4 5.0 6.2 75 2.0 ENE 24 30 13 16 1018.1 - 0.0
29/10:30pm 10.8 5.4 6.2 73 2.2 NE 24 30 13 16 1018.2 - 0.0
29/10:00pm 10.7 4.8 5.7 71 2.3 NE 26 32 14 17 1018.4 - 0.0
29/09:30pm 10.5 5.2 7.0 79 1.7 ENE 24 30 13 16 1018.5 - 0.0
29/09:00pm 10.8 5.6 7.1 78 1.8 ENE 24 28 13 15 1018.4 1018.5 0.0
29/08:30pm 10.9 6.0 7.0 77 1.9 ENE 22 28 12 15 1018.5 - 0.0
29/08:00pm 11.1 6.7 7.6 79 1.7 ENE 20 26 11 14 1018.6 - 0.0
29/07:30pm 11.7 7.1 8.0 78 1.8 NE 22 24 12 13 1018.4 - 0.0
29/07:00pm 11.7 7.4 8.0 78 1.8 NE 20 24 11 13 1018.3 - 0.0
29/06:30pm 11.8 7.5 7.9 77 1.9 NE 20 22 11 12 1018.0 - 0.0
29/06:00pm 12.3 8.2 8.0 75 2.1 NE 19 24 10 13 1017.5 1017.6 0.0
29/05:30pm 13.0 8.9 8.5 74 2.2 NE 20 24 11 13 1017.2 - 0.0
29/05:00pm 13.9 10.9 9.3 74 2.4 NE 15 20 8 11 1017.1 - 0.0
29/04:30pm 14.5 11.1 9.3 71 2.7 NNE 17 20 9 11 1017.0 - 0.0
29/04:00pm 16.1 12.3 9.1 63 3.6 N 19 22 10 12 1016.9 - 0.0
29/03:30pm 15.8 13.7 9.9 68 3.1 NNE 11 15 6 8 1017.0 - 0.0
29/03:00pm 14.6 11.2 9.2 70 2.8 NNW 17 24 9 13 1017.1 1017.2 0.0
29/02:30pm 15.4 12.5 6.7 56 4.3 N 11 17 6 9 1017.1 - 0.0
29/02:00pm 15.8 11.9 7.3 57 4.2 N 17 20 9 11 1017.2 - 0.0
29/01:30pm 15.5 10.0 0.9 37 6.3 NNE 19 26 10 14 1017.4 - 0.0
29/01:00pm 15.3 10.0 4.9 50 4.9 NNE 22 30 12 16 1017.8 - 0.0
29/12:30pm 15.0 10.7 8.0 63 3.5 NNE 20 35 11 19 1018.3 - 0.0
29/12:00pm 14.6 10.5 8.8 68 2.9 NE 20 24 11 13 1018.6 1018.7 0.0
29/11:30am 13.9 9.5 8.9 72 2.5 NE 22 28 12 15 1018.8 - 0.0

Latest Capital City Observations: Canberra | Sydney | Melbourne | Brisbane | Adelaide | Perth | Hobart | Darwin

Other Formats:

Comma delimited format used in spreadsheet applications
http://www.bom.gov.au/fwo/IDS60901/IDS60901.95671.axf

JavaScript Object Notation format (JSON) in row-major order
http://www.bom.gov.au/fwo/IDS60901/IDS60901.95671.json